^^
Saratoga-Weather Station Historical Data
Daily Summary for September 3, 2020 Units:  English    Metric   Both
Daily Weekly Monthly Yearly Custom
  High: Low: Average:
Temperature: 56.5 °F 50 °F 52.2 °F
Dew Point: 55 °F 48.2 °F 50 °F
Humidity: 95% 83% 93%
Wind Speed: 8.1mph 0mph 1.7mph
Wind Gust: 13mph - -
Wind- - SSE
Pressure: 29.3 in 29.1 in -
Precipitation: 0.37 in    
Historical Graphs
 
 
Tabular Data for September 3, 2020
Time Temperature Dew Point Pressure Wind Wind Speed Wind Gust Humidity Rainfall Rate (Hourly) solar
00:02 56.3 °F 54.9 °F 29.2 in NW 4 mph 5 mph 95% 0 in 0 W/m2
00:07 56.5 °F 55 °F 29.2 in WNW 8.1 mph 8 mph 95% 0 in 0 W/m2
00:12 56.5 °F 55 °F 29.2 in NNW 2.9 mph 6 mph 95% 0 in 0 W/m2
00:17 56.3 °F 54.9 °F 29.2 in WNW 6 mph 9 mph 95% 0 in 0 W/m2
00:22 56.3 °F 54.9 °F 29.2 in West 6 mph 8 mph 95% 0 in 0 W/m2
00:27 56.1 °F 54.5 °F 29.2 in NW 4.9 mph 9 mph 94% 0 in 0 W/m2
00:32 56.1 °F 54.5 °F 29.1 in NNW 4 mph 7 mph 94% 0 in 0 W/m2
00:37 55.9 °F 54.3 °F 29.1 in WNW 6.9 mph 7 mph 94% 0 in 0 W/m2
00:42 55.9 °F 54.3 °F 29.1 in West 4 mph 7 mph 94% 0 in 0 W/m2
00:47 55.8 °F 54.1 °F 29.1 in WNW 4.9 mph 8 mph 94% 0 in 0 W/m2
00:52 55.8 °F 54.1 °F 29.2 in WNW 4 mph 11 mph 94% 0 in 0 W/m2
00:57 55.6 °F 54.1 °F 29.2 in West 6.9 mph 8 mph 95% 0 in 0 W/m2
01:02 55.6 °F 54 °F 29.2 in WNW 6.9 mph 7 mph 94% 0 in 0 W/m2
01:07 55.4 °F 53.8 °F 29.1 in West 6.9 mph 7 mph 94% 0 in 0 W/m2
01:12 55.2 °F 53.6 °F 29.1 in WSW 2.9 mph 6 mph 94% 0 in 0 W/m2
01:17 55 °F 53.4 °F 29.1 in WNW 2 mph 3 mph 94% 0 in 0 W/m2
01:22 55 °F 53.4 °F 29.1 in WNW 0.9 mph 2 mph 94% 0 in 0 W/m2
01:27 54.9 °F 53.2 °F 29.1 in WNW 0.9 mph 2 mph 94% 0 in 0 W/m2
01:32 54.7 °F 53.1 °F 29.2 in Calm   1 mph 94% 0 in 0 W/m2
01:37 54.5 °F 53.1 °F 29.2 in Calm   2 mph 95% 0 in 0 W/m2
01:42 54.3 °F 52.9 °F 29.1 in NW 2.9 mph 4 mph 95% 0 in 0 W/m2
01:47 54.3 °F 52.9 °F 29.1 in NW 0.9 mph 2 mph 95% 0 in 0 W/m2
01:52 54.3 °F 52.7 °F 29.1 in NW 0.9 mph 2 mph 94% 0 in 0 W/m2
01:57 54.1 °F 52.5 °F 29.2 in WNW 2.9 mph 6 mph 94% 0 in 0 W/m2
02:02 54.1 °F 52.5 °F 29.2 in West 0.9 mph 6 mph 94% 0 in 0 W/m2
02:07 54 °F 52.3 °F 29.2 in NNW 2.9 mph 7 mph 94% 0 in 0 W/m2
02:13 54 °F 52.3 °F 29.2 in NW 6.9 mph 8 mph 94% 0 in 0 W/m2
02:18 53.8 °F 52.2 °F 29.2 in NW 2.9 mph 4 mph 94% 0 in 0 W/m2
02:23 53.8 °F 52.2 °F 29.2 in North 0.9 mph 9 mph 94% 0 in 0 W/m2
02:28 53.6 °F 52 °F 29.2 in NNE 4 mph 4 mph 94% 0 in 0 W/m2
02:33 53.4 °F 51.8 °F 29.2 in West 2.9 mph 9 mph 94% 0 in 0 W/m2
02:38 53.4 °F 51.8 °F 29.2 in WSW 2.9 mph 8 mph 94% 0 in 0 W/m2
02:43 53.2 °F 51.3 °F 29.2 in West 2 mph 5 mph 93% 0 in 0 W/m2
02:48 53.2 °F 51.3 °F 29.2 in SSW 2.9 mph 7 mph 93% 0 in 0 W/m2
02:53 53.2 °F 51.3 °F 29.2 in WNW 4 mph 8 mph 93% 0 in 0 W/m2
02:58 53.2 °F 51.3 °F 29.2 in WSW 4 mph 10 mph 93% 0 in 0 W/m2
03:03 53.2 °F 51.3 °F 29.2 in NW 4 mph 7 mph 93% 0 in 0 W/m2
03:08 53.2 °F 51.3 °F 29.2 in WNW 0.9 mph 10 mph 93% 0 in 0 W/m2
03:13 53.2 °F 51.3 °F 29.2 in Calm   6 mph 93% 0 in 0 W/m2
03:18 53.1 °F 51.4 °F 29.2 in Calm   1 mph 94% 0 in 0 W/m2
03:23 53.1 °F 51.4 °F 29.2 in NW 2 mph 4 mph 94% 0 in 0 W/m2
03:28 53.1 °F 51.4 °F 29.2 in WNW 2.9 mph 5 mph 94% 0 in 0 W/m2
03:33 53.1 °F 51.4 °F 29.2 in West 2.9 mph 4 mph 94% 0 in 0 W/m2
03:38 53.1 °F 51.4 °F 29.2 in SW 0.9 mph 3 mph 94% 0 in 0 W/m2
03:43 53.1 °F 51.4 °F 29.2 in Calm   4 mph 94% 0 in 0 W/m2
03:48 53.1 °F 51.4 °F 29.2 in SE 2 mph 3 mph 94% 0 in 0 W/m2
03:53 53.1 °F 51.4 °F 29.2 in Calm     94% 0 in 0 W/m2
03:58 53.1 °F 51.4 °F 29.2 in Calm     94% 0 in 0 W/m2
04:03 52.9 °F 51.3 °F 29.2 in Calm   2 mph 94% 0 in 0 W/m2
04:08 52.9 °F 51.3 °F 29.2 in Calm   3 mph 94% 0 in 0 W/m2
04:13 52.9 °F 51.3 °F 29.2 in Calm     94% 0.01 in 0 W/m2
04:18 52.9 °F 51.3 °F 29.2 in Calm   2 mph 94% 0.01 in 0 W/m2
04:23 52.7 °F 51.1 °F 29.2 in NW 0.9 mph 1 mph 94% 0.01 in 0 W/m2
04:28 52.5 °F 51.1 °F 29.2 in Calm   1 mph 95% 0.02 in 0 W/m2
04:33 52.5 °F 51.1 °F 29.2 in West 2.9 mph 3 mph 95% 0.02 in 0 W/m2
04:38 52.5 °F 51.1 °F 29.2 in WNW 2 mph 2 mph 95% 0.02 in 0 W/m2
04:43 52.5 °F 51.1 °F 29.2 in NW 0.9 mph 3 mph 95% 0.02 in 0 W/m2
04:48 52.3 °F 50.9 °F 29.2 in NNW 0.9 mph 1 mph 95% 0.02 in 0 W/m2
04:53 52.3 °F 50.7 °F 29.2 in WNW 2 mph 7 mph 94% 0.02 in 0 W/m2
04:58 52.2 °F 50.5 °F 29.2 in West 2 mph 4 mph 94% 0.02 in 0 W/m2
05:03 52.2 °F 50.5 °F 29.2 in WNW 0.9 mph 7 mph 94% 0.02 in 0 W/m2
05:08 52 °F 50.4 °F 29.2 in Calm   1 mph 94% 0.02 in 0 W/m2
05:13 52 °F 50.4 °F 29.2 in NW 0.9 mph 2 mph 94% 0.01 in 0 W/m2
05:18 51.8 °F 50.2 °F 29.2 in North 0.9 mph 3 mph 94% 0.01 in 0 W/m2
05:23 51.6 °F 50 °F 29.2 in Calm   1 mph 94% 0.01 in 0 W/m2
05:28 51.6 °F 50 °F 29.2 in Calm     94% 0 in 0 W/m2
05:33 51.6 °F 50 °F 29.2 in NW 2 mph 2 mph 94% 0 in 0 W/m2
05:38 51.4 °F 49.8 °F 29.2 in Calm   2 mph 94% 0 in 0 W/m2
05:43 51.4 °F 49.8 °F 29.2 in Calm   2 mph 94% 0.01 in 0 W/m2
05:48 51.3 °F 49.6 °F 29.2 in West 0.9 mph 8 mph 94% 0.01 in 0 W/m2
05:53 51.3 °F 49.6 °F 29.2 in West 2 mph 3 mph 94% 0.01 in 0 W/m2
05:58 51.1 °F 49.5 °F 29.2 in NW 2 mph 8 mph 94% 0.01 in 0 W/m2
06:03 51.1 °F 49.5 °F 29.2 in WNW 2 mph 3 mph 94% 0.02 in 0 W/m2
06:08 50.9 °F 49.3 °F 29.2 in WNW 0.9 mph 3 mph 94% 0.02 in 0 W/m2
06:13 50.7 °F 49.1 °F 29.2 in NW 4 mph 4 mph 94% 0.02 in 0 W/m2
06:18 50.7 °F 49.1 °F 29.2 in West 2 mph 8 mph 94% 0.02 in 0 W/m2
06:23 50.5 °F 48.9 °F 29.2 in NW 2 mph 4 mph 94% 0.03 in 0 W/m2
06:28 50.5 °F 48.9 °F 29.2 in West 2.9 mph 8 mph 94% 0.03 in 0 W/m2
06:33 50.5 °F 48.9 °F 29.2 in NW 2.9 mph 3 mph 94% 0.04 in 0 W/m2
06:38 50.5 °F 48.9 °F 29.2 in Calm   6 mph 94% 0.04 in 0 W/m2
06:43 50.4 °F 48.7 °F 29.2 in WNW 0.9 mph 3 mph 94% 0.03 in 0 W/m2
06:48 50.4 °F 48.7 °F 29.2 in WNW 0.9 mph 6 mph 94% 0.03 in 0 W/m2
06:53 50.4 °F 48.7 °F 29.2 in WSW 0.9 mph 4 mph 94% 0.04 in 0 W/m2
06:58 50.2 °F 48.6 °F 29.2 in WNW 2 mph 3 mph 94% 0.04 in 0 W/m2
07:03 50.2 °F 48.7 °F 29.2 in Calm   4 mph 95% 0.04 in 0 W/m2
07:08 50.2 °F 48.7 °F 29.2 in Calm   2 mph 95% 0.05 in 0 W/m2
07:13 50.2 °F 48.7 °F 29.2 in NNE 2 mph 2 mph 95% 0.06 in 0 W/m2
07:18 50.2 °F 48.7 °F 29.2 in Calm   2 mph 95% 0.06 in 0 W/m2
07:23 50.2 °F 48.7 °F 29.2 in WNW 2 mph 5 mph 95% 0.06 in 0 W/m2
07:28 50.2 °F 48.7 °F 29.2 in NW 0.9 mph 3 mph 95% 0.07 in 0 W/m2
07:33 50.2 °F 48.7 °F 29.2 in Calm   5 mph 95% 0.08 in 0 W/m2
07:38 50.2 °F 48.7 °F 29.2 in Calm   2 mph 95% 0.09 in 0 W/m2
07:43 50 °F 48.6 °F 29.2 in ESE 0.9 mph 3 mph 95% 0.09 in 7 W/m2
07:48 50 °F 48.6 °F 29.2 in Calm   2 mph 95% 0.09 in 9 W/m2
07:53 50 °F 48.6 °F 29.2 in North 0.9 mph 3 mph 95% 0.09 in 11 W/m2
07:58 50 °F 48.6 °F 29.2 in Calm   2 mph 95% 0.09 in 11 W/m2
08:03 50 °F 48.6 °F 29.2 in Calm   1 mph 95% 0.08 in 9 W/m2
08:08 50.2 °F 48.7 °F 29.2 in NE 0.9 mph 2 mph 95% 0.07 in 9 W/m2
08:13 50.2 °F 48.7 °F 29.2 in NNE 2 mph 2 mph 95% 0.06 in 14 W/m2
08:18 50.2 °F 48.7 °F 29.2 in Calm     95% 0.06 in 18 W/m2
08:23 50.2 °F 48.7 °F 29.2 in Calm     95% 0.06 in 14 W/m2
08:28 50.2 °F 48.7 °F 29.3 in NNE 2 mph 2 mph 95% 0.05 in 12 W/m2
08:33 50.2 °F 48.7 °F 29.3 in NNW 0.9 mph 2 mph 95% 0.03 in 12 W/m2
08:38 50.4 °F 48.9 °F 29.3 in North 0.9 mph 2 mph 95% 0.03 in 16 W/m2
08:43 50.4 °F 48.9 °F 29.3 in Calm   3 mph 95% 0.02 in 21 W/m2
08:48 50.4 °F 48.9 °F 29.3 in Calm   1 mph 95% 0.02 in 25 W/m2
08:53 50.4 °F 48.9 °F 29.2 in Calm   3 mph 95% 0.03 in 19 W/m2
08:58 50.4 °F 48.9 °F 29.3 in Calm   2 mph 95% 0.03 in 19 W/m2
09:03 50.2 °F 48.7 °F 29.3 in East 0.9 mph 3 mph 95% 0.03 in 26 W/m2
09:08 50.4 °F 48.9 °F 29.3 in Calm   2 mph 95% 0.02 in 23 W/m2
09:13 50.4 °F 48.9 °F 29.3 in Calm   1 mph 95% 0.02 in 21 W/m2
09:18 50.4 °F 48.9 °F 29.3 in Calm   3 mph 95% 0.02 in 28 W/m2
09:23 50.4 °F 48.9 °F 29.3 in Calm     95% 0.02 in 32 W/m2
09:28 50.4 °F 48.9 °F 29.3 in NNE 0.9 mph 2 mph 95% 0.02 in 40 W/m2
09:33 50.4 °F 48.9 °F 29.3 in Calm   1 mph 95% 0.02 in 35 W/m2
09:38 50.5 °F 49.1 °F 29.3 in NE 2 mph 2 mph 95% 0.02 in 35 W/m2
09:43 50.5 °F 49.1 °F 29.3 in NE 0.9 mph 1 mph 95% 0.02 in 40 W/m2
09:48 50.5 °F 49.1 °F 29.3 in Calm   2 mph 95% 0.03 in 62 W/m2
09:54 50.5 °F 49.1 °F 29.3 in Calm     95% 0.02 in 70 W/m2
09:59 50.5 °F 49.1 °F 29.3 in NW 0.9 mph 2 mph 95% 0.02 in 42 W/m2
10:04 50.5 °F 49.1 °F 29.3 in NE 2 mph 2 mph 95% 0.02 in 53 W/m2
10:09 50.5 °F 49.1 °F 29.3 in NNE 0.9 mph 3 mph 95% 0.03 in 84 W/m2
10:14 50.7 °F 49.3 °F 29.3 in North 2 mph 2 mph 95% 0.03 in 105 W/m2
10:19 50.7 °F 49.3 °F 29.3 in Calm   1 mph 95% 0.03 in 97 W/m2
10:24 50.7 °F 49.3 °F 29.3 in Calm   3 mph 95% 0.02 in 116 W/m2
10:29 51.1 °F 49.6 °F 29.3 in Calm   2 mph 95% 0.02 in 97 W/m2
10:34 51.1 °F 49.5 °F 29.3 in WNW 0.9 mph 3 mph 94% 0.02 in 95 W/m2
10:39 51.1 °F 49.5 °F 29.3 in Calm   3 mph 94% 0.02 in 79 W/m2
10:44 51.3 °F 49.6 °F 29.3 in North 2 mph 3 mph 94% 0.02 in 91 W/m2
10:49 51.3 °F 49.6 °F 29.3 in ENE 2 mph 3 mph 94% 0.01 in 74 W/m2
10:54 51.3 °F 49.6 °F 29.3 in NNW 2.9 mph 4 mph 94% 0.01 in 62 W/m2
10:59 51.3 °F 49.3 °F 29.3 in East 0.9 mph 5 mph 93% 0.01 in 90 W/m2
11:04 51.3 °F 49.3 °F 29.3 in NE 2 mph 3 mph 93% 0.01 in 86 W/m2
11:09 51.3 °F 49.3 °F 29.3 in NNE 0.9 mph 5 mph 93% 0 in 77 W/m2
11:14 51.3 °F 49.3 °F 29.3 in North 2 mph 2 mph 93% 0 in 74 W/m2
11:19 51.3 °F 49.3 °F 29.3 in NE 0.9 mph 3 mph 93% 0.01 in 69 W/m2
11:24 51.3 °F 49.3 °F 29.3 in Calm   2 mph 93% 0.01 in 81 W/m2
11:29 51.1 °F 49.1 °F 29.3 in Calm   3 mph 93% 0.01 in 95 W/m2
11:34 51.1 °F 48.9 °F 29.3 in NNE 2 mph 2 mph 92% 0.01 in 111 W/m2
11:39 50.9 °F 48.7 °F 29.3 in ESE 0.9 mph 3 mph 92% 0.01 in 125 W/m2
11:44 50.9 °F 48.7 °F 29.3 in NE 0.9 mph 3 mph 92% 0.01 in 105 W/m2
11:49 50.9 °F 48.7 °F 29.3 in ENE 0.9 mph 5 mph 92% 0.01 in 125 W/m2
11:54 50.9 °F 48.7 °F 29.3 in Calm   1 mph 92% 0.01 in 104 W/m2
11:59 50.9 °F 48.7 °F 29.3 in North 0.9 mph 5 mph 92% 0.01 in 109 W/m2
12:04 50.9 °F 48.7 °F 29.3 in NE 2.9 mph 4 mph 92% 0.01 in 132 W/m2
12:09 51.1 °F 49.1 °F 29.3 in Calm   4 mph 93% 0.01 in 120 W/m2
12:14 51.1 °F 48.9 °F 29.3 in ENE 0.9 mph 3 mph 92% 0.01 in 155 W/m2
12:19 51.1 °F 48.9 °F 29.3 in NE 0.9 mph 4 mph 92% 0 in 116 W/m2
12:24 51.1 °F 48.9 °F 29.3 in East 2 mph 5 mph 92% 0 in 95 W/m2
12:29 50.7 °F 48.6 °F 29.3 in Calm   4 mph 92% 0 in 77 W/m2
12:34 50.7 °F 48.6 °F 29.3 in NE 2.9 mph 4 mph 92% 0 in 83 W/m2
12:39 50.7 °F 48.6 °F 29.3 in NE 2 mph 5 mph 92% 0.01 in 97 W/m2
12:44 50.5 °F 48.6 °F 29.3 in East 4.9 mph 5 mph 93% 0.01 in 62 W/m2
12:49 50.5 °F 48.6 °F 29.3 in ENE 2 mph 4 mph 93% 0.01 in 42 W/m2
12:54 50.5 °F 48.6 °F 29.3 in East 0.9 mph 3 mph 93% 0.01 in 44 W/m2
12:59 50.4 °F 48.4 °F 29.3 in NNE 2 mph 4 mph 93% 0.01 in 49 W/m2
13:04 50.4 °F 48.4 °F 29.3 in East 0.9 mph 2 mph 93% 0.02 in 58 W/m2
13:09 50.2 °F 48.2 °F 29.3 in NE 0.9 mph 4 mph 93% 0.02 in 77 W/m2
13:14 50.2 °F 48.2 °F 29.3 in Calm   2 mph 93% 0.02 in 100 W/m2
13:19 50.2 °F 48.2 °F 29.3 in ESE 2 mph 3 mph 93% 0.02 in 107 W/m2
13:24 50.2 °F 48.2 °F 29.3 in ENE 2.9 mph 7 mph 93% 0.02 in 142 W/m2
13:29 50.4 °F 48.7 °F 29.3 in NE 2.9 mph 9 mph 94% 0.02 in 220 W/m2
13:34 50.5 °F 48.9 °F 29.3 in ESE 6.9 mph 9 mph 94% 0.02 in 237 W/m2
13:39 50.7 °F 48.7 °F 29.3 in SSE 2.9 mph 8 mph 93% 0.01 in 221 W/m2
13:44 50.7 °F 48.7 °F 29.3 in NNE 4 mph 4 mph 93% 0.01 in 285 W/m2
13:49 51.1 °F 49.1 °F 29.3 in East 6.9 mph 9 mph 93% 0.01 in 267 W/m2
13:54 51.3 °F 49.3 °F 29.3 in East 0.9 mph 5 mph 93% 0.01 in 267 W/m2
13:59 51.6 °F 49.5 °F 29.3 in NE 0.9 mph 9 mph 92% 0.01 in 339 W/m2
14:04 51.8 °F 49.6 °F 29.3 in ENE 2.9 mph 4 mph 92% 0 in 290 W/m2
14:09 52.3 °F 50 °F 29.3 in East 2.9 mph 4 mph 92% 0 in 192 W/m2
14:14 52.3 °F 49.8 °F 29.3 in ENE 2 mph 7 mph 91% 0 in 329 W/m2
14:19 52.7 °F 50.2 °F 29.3 in East 0.9 mph 10 mph 91% 0 in 220 W/m2
14:24 52.9 °F 50 °F 29.3 in East 4 mph 7 mph 90% 0 in 229 W/m2
14:29 52.9 °F 49.6 °F 29.3 in East 0.9 mph 7 mph 89% 0 in 121 W/m2
14:34 52.9 °F 49.5 °F 29.3 in SE 4 mph 8 mph 88% 0 in 167 W/m2
14:39 52.7 °F 49.5 °F 29.3 in ENE 0.9 mph 4 mph 89% 0 in 139 W/m2
14:44 52.7 °F 49.3 °F 29.3 in NE 2.9 mph 5 mph 88% 0 in 246 W/m2
14:49 52.9 °F 49.5 °F 29.3 in North 4 mph 4 mph 88% 0 in 230 W/m2
14:54 53.1 °F 49.6 °F 29.3 in ENE 2.9 mph 4 mph 88% 0 in 199 W/m2
14:59 53.2 °F 49.5 °F 29.3 in East 2 mph 6 mph 87% 0 in 308 W/m2
15:04 53.8 °F 49.6 °F 29.3 in ENE 0.9 mph 7 mph 86% 0 in 207 W/m2
15:09 54 °F 49.6 °F 29.3 in NW 0.9 mph 4 mph 85% 0 in 445 W/m2
15:14 54.1 °F 49.5 °F 29.3 in Calm   7 mph 84% 0 in 153 W/m2
15:19 54 °F 48.9 °F 29.3 in WNW 2 mph 3 mph 83% 0 in 111 W/m2
15:24 54 °F 48.9 °F 29.3 in SW 0.9 mph 6 mph 83% 0 in 188 W/m2
15:29 54 °F 48.9 °F 29.3 in NNW 0.9 mph 4 mph 83% 0 in 148 W/m2
15:34 54 °F 48.9 °F 29.3 in NW 0.9 mph 2 mph 83% 0 in 137 W/m2
15:39 54.1 °F 49.1 °F 29.3 in ESE 2 mph 6 mph 83% 0 in 123 W/m2
15:44 54.1 °F 49.1 °F 29.3 in East 0.9 mph 3 mph 83% 0 in 121 W/m2
15:49 54.1 °F 49.5 °F 29.3 in ENE 2.9 mph 6 mph 84% 0 in 90 W/m2
15:54 54.1 °F 49.5 °F 29.3 in East 2.9 mph 3 mph 84% 0 in 69 W/m2
15:59 54 °F 49.3 °F 29.3 in East 2.9 mph 3 mph 84% 0 in 58 W/m2
16:04 53.8 °F 49.1 °F 29.3 in Calm   3 mph 84% 0 in 46 W/m2
16:09 53.8 °F 49.5 °F 29.3 in ENE 0.9 mph 2 mph 85% 0 in 47 W/m2
16:14 53.8 °F 49.6 °F 29.3 in Calm   2 mph 86% 0 in 67 W/m2
16:19 53.8 °F 50 °F 29.3 in Calm   1 mph 87% 0 in 62 W/m2
16:24 53.6 °F 49.5 °F 29.3 in Calm     86% 0 in 56 W/m2
16:29 53.4 °F 49.6 °F 29.3 in NE 0.9 mph 2 mph 87% 0 in 47 W/m2
16:34 53.4 °F 49.3 °F 29.3 in East 0.9 mph 3 mph 86% 0 in 40 W/m2
16:39 53.4 °F 50 °F 29.3 in NE 0.9 mph 1 mph 88% 0 in 37 W/m2
16:44 53.2 °F 49.8 °F 29.3 in SSE 2 mph 4 mph 88% 0 in 37 W/m2
16:49 53.1 °F 49.6 °F 29.2 in Calm   3 mph 88% 0 in 51 W/m2
16:54 53.1 °F 49.6 °F 29.3 in East 0.9 mph 2 mph 88% 0 in 47 W/m2
16:59 53.1 °F 49.3 °F 29.3 in Calm     87% 0 in 54 W/m2
17:05 53.2 °F 49.8 °F 29.3 in Calm   1 mph 88% 0 in 40 W/m2
17:10 53.2 °F 50 °F 29.3 in Calm     89% 0 in 26 W/m2
17:15 53.1 °F 50.2 °F 29.3 in Calm     90% 0 in 19 W/m2
17:20 53.1 °F 50.5 °F 29.3 in Calm     91% 0 in 16 W/m2
17:25 52.9 °F 50.4 °F 29.3 in Calm     91% 0 in 16 W/m2
17:30 52.5 °F 50 °F 29.2 in Calm   1 mph 91% 0 in 19 W/m2
17:35 52.5 °F 50.2 °F 29.2 in Calm     92% 0 in 14 W/m2
17:40 52.5 °F 50.5 °F 29.2 in Calm   1 mph 93% 0 in 19 W/m2
17:45 52.3 °F 50.4 °F 29.2 in Calm     93% 0 in 19 W/m2
17:51 52.3 °F 50.4 °F 29.2 in Calm     93% 0 in 19 W/m2
17:56 52.2 °F 50.5 °F 29.2 in Calm     94% 0 in 21 W/m2
18:01 52.2 °F 50.5 °F 29.2 in Calm     94% 0 in 16 W/m2
18:06 52.2 °F 50.5 °F 29.2 in Calm     94% 0 in 12 W/m2
18:11 52.2 °F 50.5 °F 29.2 in Calm     94% 0 in 12 W/m2
18:16 52 °F 50.4 °F 29.2 in Calm     94% 0 in 12 W/m2
18:21 52 °F 50.4 °F 29.2 in Calm     94% 0 in 12 W/m2
18:26 52 °F 50.4 °F 29.2 in Calm     94% 0 in 7 W/m2
18:31 51.8 °F 50.2 °F 29.2 in Calm     94% 0 in 5 W/m2
18:36 51.6 °F 50 °F 29.2 in Calm     94% 0 in 0 W/m2
18:41 51.6 °F 50 °F 29.2 in Calm     94% 0 in 0 W/m2
18:46 51.6 °F 50.2 °F 29.2 in Calm     95% 0 in 0 W/m2
18:51 51.6 °F 50.2 °F 29.2 in Calm     95% 0 in 0 W/m2
18:56 51.6 °F 50.2 °F 29.2 in Calm     95% 0 in 0 W/m2
19:01 51.6 °F 50.2 °F 29.2 in Calm     95% 0 in 0 W/m2
19:06 51.4 °F 50 °F 29.2 in Calm   1 mph 95% 0 in 0 W/m2
19:11 51.4 °F 50 °F 29.2 in Calm     95% 0 in 0 W/m2
19:16 51.4 °F 50 °F 29.2 in Calm   1 mph 95% 0 in 0 W/m2
19:21 51.4 °F 50 °F 29.2 in Calm     95% 0 in 0 W/m2
19:26 51.4 °F 50 °F 29.2 in Calm   1 mph 95% 0 in 0 W/m2
19:31 51.4 °F 50 °F 29.2 in ENE 0.9 mph 2 mph 95% 0 in 0 W/m2
19:36 51.4 °F 50 °F 29.2 in ENE 4 mph 5 mph 95% 0 in 0 W/m2
19:41 52.9 °F 50.9 °F 29.2 in ENE 4.9 mph 10 mph 93% 0 in 0 W/m2
19:46 54 °F 50.5 °F 29.2 in ENE 2.9 mph 12 mph 88% 0 in 0 W/m2
19:51 54.1 °F 50 °F 29.2 in SE 2 mph 12 mph 86% 0 in 0 W/m2
19:56 54 °F 49.8 °F 29.2 in ENE 2.9 mph 5 mph 86% 0.01 in 0 W/m2
20:01 53.8 °F 50 °F 29.2 in ESE 2.9 mph 6 mph 87% 0.01 in 0 W/m2
20:06 53.4 °F 50 °F 29.2 in East 2.9 mph 12 mph 88% 0.02 in 0 W/m2
20:11 53.2 °F 50 °F 29.2 in ENE 4 mph 5 mph 89% 0.02 in 0 W/m2
20:16 53.1 °F 49.8 °F 29.2 in East 6.9 mph 8 mph 89% 0.02 in 0 W/m2
20:21 52.9 °F 50 °F 29.2 in East 0.9 mph 4 mph 90% 0.03 in 0 W/m2
20:26 52.9 °F 50 °F 29.2 in ESE 2 mph 3 mph 90% 0.03 in 0 W/m2
20:31 52.5 °F 50 °F 29.2 in East 2 mph 3 mph 91% 0.05 in 0 W/m2
20:36 52.3 °F 50 °F 29.2 in East 2 mph 7 mph 92% 0.06 in 0 W/m2
20:41 52.2 °F 49.8 °F 29.2 in ENE 2 mph 5 mph 92% 0.07 in 0 W/m2
20:46 52.2 °F 50.2 °F 29.2 in SE 4 mph 6 mph 93% 0.07 in 0 W/m2
20:51 52 °F 50 °F 29.2 in ENE 0.9 mph 5 mph 93% 0.07 in 0 W/m2
20:56 52 °F 50 °F 29.2 in East 2.9 mph 9 mph 93% 0.06 in 0 W/m2
21:01 52 °F 50 °F 29.2 in ESE 2.9 mph 6 mph 93% 0.06 in 0 W/m2
21:07 52 °F 50 °F 29.2 in ENE 2 mph 9 mph 93% 0.06 in 0 W/m2
21:12 52.2 °F 50.2 °F 29.2 in ENE 4.9 mph 11 mph 93% 0.05 in 0 W/m2
21:17 52.2 °F 50.2 °F 29.2 in NNW 2.9 mph 5 mph 93% 0.05 in 0 W/m2
21:22 52.2 °F 50.2 °F 29.2 in East 2.9 mph 11 mph 93% 0.04 in 0 W/m2
21:27 52.3 °F 50 °F 29.2 in ENE 2.9 mph 9 mph 92% 0.03 in 0 W/m2
21:32 52.3 °F 50 °F 29.2 in NE 2 mph 11 mph 92% 0.02 in 0 W/m2
21:37 52.3 °F 50 °F 29.2 in NE 2 mph 6 mph 92% 0.01 in 0 W/m2
21:42 52.3 °F 50 °F 29.2 in ESE 2 mph 9 mph 92% 0 in 0 W/m2
21:47 52.3 °F 50 °F 29.2 in NE 2 mph 4 mph 92% 0 in 0 W/m2
21:52 52.3 °F 50 °F 29.2 in North 0.9 mph 9 mph 92% 0 in 0 W/m2
21:57 52.3 °F 50 °F 29.2 in NNW 2 mph 3 mph 92% 0 in 0 W/m2
22:02 52.3 °F 50 °F 29.2 in ENE 0.9 mph 3 mph 92% 0 in 0 W/m2
22:07 52.2 °F 49.8 °F 29.2 in Calm   2 mph 92% 0 in 0 W/m2
22:12 52.2 °F 49.8 °F 29.2 in ENE 4 mph 4 mph 92% 0 in 0 W/m2
22:17 52.2 °F 49.8 °F 29.2 in Calm   1 mph 92% 0 in 0 W/m2
22:22 52 °F 50 °F 29.2 in Calm   1 mph 93% 0 in 0 W/m2
22:27 52 °F 50 °F 29.2 in East 4 mph 4 mph 93% 0 in 0 W/m2
22:32 52 °F 50 °F 29.2 in ESE 0.9 mph 3 mph 93% 0 in 0 W/m2
22:37 52 °F 50 °F 29.2 in Calm   3 mph 93% 0 in 0 W/m2
22:42 52 °F 50 °F 29.2 in NNE 2.9 mph 3 mph 93% 0 in 0 W/m2
22:47 52 °F 50 °F 29.2 in ENE 6 mph 8 mph 93% 0 in 0 W/m2
22:52 52 °F 49.6 °F 29.2 in SE 4.9 mph 9 mph 92% 0.01 in 0 W/m2
22:57 52 °F 49.6 °F 29.2 in ENE 2.9 mph 5 mph 92% 0.02 in 0 W/m2
23:02 51.8 °F 49.6 °F 29.2 in ENE 2.9 mph 8 mph 92% 0.02 in 0 W/m2
23:07 51.6 °F 49.6 °F 29.2 in NE 2 mph 8 mph 93% 0.02 in 0 W/m2
23:12 51.4 °F 49.5 °F 29.2 in NE 6 mph 6 mph 93% 0.02 in 0 W/m2
23:17 51.4 °F 49.5 °F 29.2 in ENE 2 mph 8 mph 93% 0.03 in 0 W/m2
23:22 51.3 °F 49.3 °F 29.2 in NE 4 mph 6 mph 93% 0.03 in 0 W/m2
23:27 51.3 °F 49.3 °F 29.2 in SE 2.9 mph 10 mph 93% 0.03 in 0 W/m2
23:32 51.1 °F 49.1 °F 29.2 in NE 4.9 mph 7 mph 93% 0.04 in 0 W/m2
23:37 50.9 °F 48.9 °F 29.2 in NNE 2 mph 10 mph 93% 0.04 in 0 W/m2
23:42 50.7 °F 48.7 °F 29.2 in NE 4 mph 7 mph 93% 0.05 in 0 W/m2
23:47 50.7 °F 48.7 °F 29.2 in ESE 2.9 mph 11 mph 93% 0.06 in 0 W/m2
23:52 50.7 °F 48.7 °F 29.2 in ESE 2 mph 11 mph 93% 0.05 in 0 W/m2
23:57 50.5 °F 48.6 °F 29.2 in ESE 8.1 mph 13 mph 93% 0.05 in 0 W/m2
Juneau County Weather
Compliments of Weather Underground - 2 mb